createdAt,value
2017-10-19T00:02:03.517Z,11.60
2017-10-19T00:04:33.479Z,12.90
2017-10-19T00:07:03.562Z,14.30
2017-10-19T00:09:34.169Z,13.80
2017-10-19T00:12:04.038Z,14.80
2017-10-19T00:14:34.355Z,14.77
2017-10-19T00:17:04.891Z,12.73
2017-10-19T00:19:34.475Z,11.43
2017-10-19T00:22:05.291Z,11.17
2017-10-19T00:24:34.835Z,10.10
2017-10-19T00:27:04.369Z,13.67
2017-10-19T00:29:33.952Z,13.87
2017-10-19T00:32:03.986Z,12.10
2017-10-19T00:34:34.146Z,12.13
2017-10-19T00:37:04.026Z,12.40
2017-10-19T00:39:34.022Z,11.20
2017-10-19T00:42:04.101Z,13.63
2017-10-19T00:44:34.137Z,12.67
2017-10-19T00:47:04.090Z,16.10
2017-10-19T00:49:34.887Z,15.70
2017-10-19T00:52:04.857Z,14.20
2017-10-19T00:54:34.636Z,14.33
2017-10-19T00:57:04.256Z,13.47
2017-10-19T00:59:34.325Z,13.97
2017-10-19T01:02:04.771Z,15.07
2017-10-19T01:04:34.426Z,14.27
2017-10-19T01:07:04.547Z,14.03
2017-10-19T01:09:34.553Z,14.80
2017-10-19T01:12:04.566Z,13.30
2017-10-19T01:14:34.842Z,14.13
2017-10-19T01:17:04.600Z,12.77
2017-10-19T01:19:34.746Z,14.40
2017-10-19T01:22:04.915Z,14.20
2017-10-19T01:24:34.928Z,13.77
2017-10-19T01:27:04.898Z,13.43
2017-10-19T01:29:34.915Z,13.47
2017-10-19T01:32:04.969Z,14.67
2017-10-19T01:34:35.067Z,14.73
2017-10-19T01:37:05.069Z,12.43
2017-10-19T01:39:35.099Z,13.17
2017-10-19T01:42:05.158Z,12.20
2017-10-19T01:44:36.076Z,12.33
2017-10-19T01:47:05.734Z,13.23
2017-10-19T01:49:41.279Z,12.80
2017-10-19T01:52:10.819Z,12.77
2017-10-19T01:54:40.591Z,12.90
2017-10-19T01:57:10.314Z,12.17
2017-10-19T01:59:40.358Z,12.23
2017-10-19T02:02:10.632Z,12.87
2017-10-19T02:04:40.398Z,13.37
2017-10-19T02:07:10.509Z,12.63
2017-10-19T02:09:40.529Z,11.93
2017-10-19T02:12:10.454Z,12.07
2017-10-19T02:14:40.578Z,11.63
2017-10-19T02:17:10.550Z,12.00
2017-10-19T02:19:40.561Z,12.10
2017-10-19T02:22:10.598Z,12.33
2017-10-19T02:24:40.613Z,11.73
2017-10-19T02:27:10.749Z,11.93
2017-10-19T02:29:40.737Z,11.27
2017-10-19T02:32:10.791Z,11.00
2017-10-19T02:34:40.782Z,12.33
2017-10-19T02:37:10.846Z,12.73
2017-10-19T02:39:40.897Z,11.60
2017-10-19T02:42:10.875Z,14.83
2017-10-19T02:44:40.888Z,12.20
2017-10-19T02:47:10.763Z,12.83
2017-10-19T02:49:41.178Z,12.43
2017-10-19T02:52:10.884Z,12.47
2017-10-19T02:54:40.975Z,12.03
2017-10-19T02:57:11.004Z,12.07
2017-10-19T02:59:40.974Z,11.03
2017-10-19T03:02:11.063Z,12.27
2017-10-19T03:04:41.003Z,12.80
2017-10-19T03:07:11.017Z,12.33
2017-10-19T03:09:41.049Z,11.90
2017-10-19T03:12:10.980Z,12.47
2017-10-19T03:14:41.075Z,12.97
2017-10-19T03:17:11.227Z,13.33
2017-10-19T03:19:41.112Z,13.77
2017-10-19T03:22:11.160Z,13.13
2017-10-19T03:24:41.282Z,12.50
2017-10-19T03:27:11.150Z,11.50
2017-10-19T03:29:41.274Z,12.23
2017-10-19T03:32:11.258Z,11.33
2017-10-19T03:34:41.234Z,11.90
2017-10-19T03:37:11.253Z,12.77
2017-10-19T03:39:41.235Z,11.83
2017-10-19T03:42:11.259Z,12.63
2017-10-19T03:44:41.282Z,12.27
2017-10-19T03:47:11.415Z,14.30
2017-10-19T03:49:41.723Z,12.87
2017-10-19T03:52:11.357Z,12.40
2017-10-19T03:54:41.624Z,12.30
2017-10-19T03:57:11.495Z,13.40
2017-10-19T03:59:41.649Z,13.10
2017-10-19T04:02:11.460Z,13.00
2017-10-19T04:04:41.538Z,13.17
2017-10-19T04:07:11.527Z,12.47
2017-10-19T04:09:41.641Z,13.50
2017-10-19T04:12:11.566Z,13.90
2017-10-19T04:14:41.962Z,14.17
2017-10-19T04:17:11.621Z,13.37
2017-10-19T04:19:41.649Z,13.73
2017-10-19T04:22:11.659Z,13.23
2017-10-19T04:24:41.744Z,13.03
2017-10-19T04:27:11.684Z,12.27
2017-10-19T04:29:41.675Z,12.63
2017-10-19T04:32:11.837Z,12.67
2017-10-19T04:34:41.781Z,13.47
2017-10-19T04:37:11.854Z,13.70
2017-10-19T04:39:41.872Z,13.30
2017-10-19T04:42:11.840Z,13.13
2017-10-19T04:44:41.935Z,12.73
2017-10-19T04:47:12.018Z,13.93
2017-10-19T04:49:42.060Z,13.53
2017-10-19T04:52:11.977Z,13.43
2017-10-19T04:54:42.010Z,13.23
2017-10-19T04:57:12.062Z,14.03
2017-10-19T04:59:42.131Z,13.63
2017-10-19T05:02:12.159Z,14.60
2017-10-19T05:04:42.096Z,12.60
2017-10-19T05:07:12.186Z,13.53
2017-10-19T05:09:42.131Z,12.97
2017-10-19T05:12:12.226Z,13.00
2017-10-19T05:14:42.242Z,12.73
2017-10-19T05:17:12.308Z,14.03
2017-10-19T05:19:42.289Z,13.43
2017-10-19T05:22:12.373Z,13.63
2017-10-19T05:24:42.313Z,13.07
2017-10-19T05:27:12.341Z,12.20
2017-10-19T05:29:42.375Z,11.37
2017-10-19T05:32:12.375Z,12.07
2017-10-19T05:34:42.493Z,11.80
2017-10-19T05:37:12.391Z,24.77
2017-10-19T05:39:42.548Z,13.33
2017-10-19T05:42:12.718Z,12.97
2017-10-19T05:44:42.560Z,12.70
2017-10-19T05:47:12.587Z,13.80
2017-10-19T05:49:42.698Z,11.73
2017-10-19T05:52:12.617Z,12.37
2017-10-19T05:54:42.653Z,12.67
2017-10-19T05:57:12.704Z,12.17
2017-10-19T05:59:42.792Z,13.13
2017-10-19T06:02:12.786Z,12.20
2017-10-19T06:04:42.698Z,11.63
2017-10-19T06:07:12.754Z,12.13
2017-10-19T06:09:42.868Z,12.43
2017-10-19T06:12:12.884Z,11.13
2017-10-19T06:14:42.896Z,10.20
2017-10-19T06:17:12.886Z,11.30
2017-10-19T06:19:42.913Z,12.43
2017-10-19T06:22:12.990Z,11.77
2017-10-19T06:24:42.999Z,11.43
2017-10-19T06:27:13.058Z,11.60
2017-10-19T06:29:43.008Z,12.13
2017-10-19T06:32:13.050Z,11.03
2017-10-19T06:34:43.133Z,10.87
2017-10-19T06:37:13.077Z,11.40
2017-10-19T06:39:43.210Z,12.13
2017-10-19T06:42:13.404Z,11.33
2017-10-19T06:44:43.376Z,11.63
2017-10-19T06:47:13.402Z,11.37
2017-10-19T06:49:43.401Z,11.50
2017-10-19T06:52:13.575Z,11.03
2017-10-19T06:54:44.340Z,11.63
2017-10-19T06:57:14.089Z,10.67
2017-10-19T06:59:44.238Z,11.50
2017-10-19T07:02:14.193Z,11.40
2017-10-19T07:04:44.290Z,11.63
2017-10-19T07:07:14.288Z,12.43
2017-10-19T07:09:44.250Z,12.67
2017-10-19T07:12:14.330Z,13.40
2017-10-19T07:14:44.589Z,12.97
2017-10-19T07:17:14.462Z,13.40
2017-10-19T07:19:44.400Z,13.87
2017-10-19T07:22:14.356Z,14.77
2017-10-19T07:24:44.386Z,13.63
2017-10-19T07:27:14.369Z,14.80
2017-10-19T07:29:44.542Z,14.60
2017-10-19T07:32:14.431Z,13.87
2017-10-19T07:34:44.829Z,14.20
2017-10-19T07:37:14.496Z,14.20
2017-10-19T07:39:44.503Z,14.47
2017-10-19T07:42:14.520Z,14.10
2017-10-19T07:44:44.703Z,12.80
2017-10-19T07:47:14.810Z,11.77
2017-10-19T07:49:44.683Z,12.83
2017-10-19T07:52:14.785Z,11.57
2017-10-19T07:54:44.911Z,11.30
2017-10-19T07:57:15.161Z,12.47
2017-10-19T07:59:45.044Z,12.23
2017-10-19T08:02:15.405Z,12.50
2017-10-19T08:04:45.144Z,11.53
2017-10-19T08:07:15.331Z,11.83
2017-10-19T08:09:45.277Z,12.57
2017-10-19T08:12:15.367Z,11.87
2017-10-19T08:14:45.241Z,11.70
2017-10-19T08:17:15.358Z,11.50
2017-10-19T08:19:45.383Z,12.03
2017-10-19T08:22:15.383Z,12.47
2017-10-19T08:24:45.400Z,11.67
2017-10-19T08:27:15.351Z,11.47
2017-10-19T08:29:45.487Z,12.00
2017-10-19T08:32:15.451Z,12.47
2017-10-19T08:34:45.566Z,12.47
2017-10-19T08:37:15.529Z,11.47
2017-10-19T08:39:45.580Z,11.33
2017-10-19T08:42:15.665Z,11.10
2017-10-19T08:44:45.638Z,11.77
2017-10-19T08:47:15.622Z,11.27
2017-10-19T08:49:45.681Z,10.97
2017-10-19T08:52:15.701Z,11.43
2017-10-19T08:54:45.543Z,12.00
2017-10-19T08:57:15.513Z,11.80
2017-10-19T08:59:45.593Z,11.57
2017-10-19T09:02:15.684Z,10.97
2017-10-19T09:04:45.766Z,10.83
2017-10-19T09:07:16.094Z,10.97
2017-10-19T09:09:46.131Z,10.70
2017-10-19T09:12:16.087Z,10.73
2017-10-19T09:14:46.173Z,11.47
2017-10-19T09:17:16.359Z,11.87
2017-10-19T09:19:46.326Z,10.83
2017-10-19T09:22:16.325Z,11.17
2017-10-19T09:24:46.328Z,11.00
2017-10-19T09:27:16.362Z,11.13
2017-10-19T09:29:46.421Z,10.60
2017-10-19T09:32:16.498Z,11.40
2017-10-19T09:34:46.538Z,10.97
2017-10-19T09:37:16.538Z,9.90
2017-10-19T09:39:46.554Z,10.50
2017-10-19T09:42:16.568Z,10.30
2017-10-19T09:44:46.750Z,10.70
2017-10-19T09:47:16.700Z,9.83
2017-10-19T09:49:46.729Z,10.43
2017-10-19T09:52:16.642Z,10.33
2017-10-19T09:54:46.654Z,9.47
2017-10-19T09:57:16.775Z,10.10
2017-10-19T09:59:47.008Z,11.10
2017-10-19T10:02:16.853Z,10.50
2017-10-19T10:04:46.832Z,9.70
2017-10-19T10:07:16.817Z,9.37
2017-10-19T10:09:46.870Z,10.10
2017-10-19T10:12:16.957Z,10.40
2017-10-19T10:14:47.010Z,9.93
2017-10-19T10:17:16.951Z,8.93
2017-10-19T10:19:46.954Z,9.23
2017-10-19T10:22:17.057Z,9.53
2017-10-19T10:24:47.066Z,9.97
2017-10-19T10:27:17.132Z,10.03
2017-10-19T10:29:47.078Z,10.13
2017-10-19T10:32:17.217Z,8.80
2017-10-19T10:34:47.296Z,9.10
2017-10-19T10:37:17.197Z,9.10
2017-10-19T10:39:47.259Z,8.40
2017-10-19T10:42:17.326Z,8.97
2017-10-19T10:44:47.408Z,8.67
2017-10-19T10:47:17.402Z,7.63
2017-10-19T10:49:47.442Z,8.57
2017-10-19T10:52:17.589Z,8.97
2017-10-19T10:54:47.627Z,8.40
2017-10-19T10:57:17.616Z,8.87
2017-10-19T10:59:47.617Z,7.93
2017-10-19T11:02:17.662Z,8.63
2017-10-19T11:04:47.678Z,8.50
2017-10-19T11:07:17.766Z,8.67
2017-10-19T11:09:47.734Z,9.20
2017-10-19T11:12:17.694Z,8.80
2017-10-19T11:14:47.828Z,8.83
2017-10-19T11:17:17.744Z,8.67
2017-10-19T11:19:47.847Z,8.53
2017-10-19T11:22:17.910Z,8.80
2017-10-19T11:24:47.819Z,7.70
2017-10-19T11:27:17.806Z,7.47
2017-10-19T11:29:47.948Z,7.70
2017-10-19T11:32:17.949Z,7.80
2017-10-19T11:34:47.960Z,8.07
2017-10-19T11:37:17.935Z,7.97
2017-10-19T11:39:47.989Z,8.90
2017-10-19T11:42:17.925Z,7.67
2017-10-19T11:44:48.019Z,7.87
2017-10-19T11:47:18.036Z,8.27
2017-10-19T11:49:48.058Z,8.43
2017-10-19T11:52:18.074Z,8.17
2017-10-19T11:54:48.156Z,7.77
2017-10-19T11:57:18.208Z,8.40
2017-10-19T11:59:48.258Z,8.97
2017-10-19T12:02:18.275Z,8.63
2017-10-19T12:04:48.297Z,8.03
2017-10-19T12:07:18.421Z,8.47
2017-10-19T12:09:48.395Z,8.20
2017-10-19T12:12:18.363Z,8.13
2017-10-19T12:14:48.465Z,7.33
2017-10-19T12:17:18.505Z,8.07
2017-10-19T12:19:48.498Z,7.77
2017-10-19T12:22:18.613Z,7.63
2017-10-19T12:24:48.627Z,8.13
2017-10-19T12:27:18.608Z,7.57
2017-10-19T12:29:48.766Z,6.73
2017-10-19T12:32:20.453Z,7.20
2017-10-19T12:34:50.038Z,6.90
2017-10-19T12:37:19.573Z,6.80
2017-10-19T12:39:49.114Z,7.80
2017-10-19T12:42:18.954Z,7.40
2017-10-19T12:44:48.989Z,7.20
2017-10-19T12:47:19.066Z,7.13
2017-10-19T12:49:49.020Z,6.87
2017-10-19T12:52:19.015Z,7.43
2017-10-19T12:54:49.048Z,6.90
2017-10-19T12:57:19.071Z,7.10
2017-10-19T12:59:49.124Z,6.63
2017-10-19T13:02:19.183Z,6.37
2017-10-19T13:04:49.197Z,6.57
2017-10-19T13:07:19.234Z,7.13
2017-10-19T13:09:49.185Z,6.27
2017-10-19T13:12:19.255Z,7.50
2017-10-19T13:14:49.302Z,6.90
2017-10-19T13:17:19.316Z,6.77
2017-10-19T13:19:49.425Z,6.43
2017-10-19T13:22:19.357Z,6.90
2017-10-19T13:24:49.356Z,6.53
2017-10-19T13:27:19.527Z,7.80
2017-10-19T13:29:49.436Z,6.80
2017-10-19T13:32:19.495Z,6.00
2017-10-19T13:34:49.636Z,6.73
2017-10-19T13:37:19.556Z,6.40
2017-10-19T13:39:49.724Z,6.67
2017-10-19T13:42:19.710Z,6.10
2017-10-19T13:44:49.700Z,5.93
2017-10-19T13:47:19.712Z,6.07
2017-10-19T13:49:49.652Z,5.60
2017-10-19T13:52:19.779Z,6.03
2017-10-19T13:54:49.787Z,5.43
2017-10-19T13:57:19.810Z,5.70
2017-10-19T13:59:49.770Z,5.70
2017-10-19T14:02:19.967Z,6.00
2017-10-19T14:04:49.833Z,6.20
2017-10-19T14:07:19.877Z,5.90
2017-10-19T14:09:50.005Z,5.93
2017-10-19T14:12:20.008Z,5.87
2017-10-19T14:14:50.038Z,6.97
2017-10-19T14:17:20.064Z,6.03
2017-10-19T14:19:50.177Z,5.67
2017-10-19T14:22:20.222Z,5.87
2017-10-19T14:24:50.232Z,6.77
2017-10-19T14:27:20.343Z,6.00
2017-10-19T14:29:51.303Z,5.77
2017-10-19T14:32:20.842Z,5.60
2017-10-19T14:34:50.898Z,5.63
2017-10-19T14:37:20.470Z,5.00
2017-10-19T14:39:50.509Z,6.10
2017-10-19T14:42:20.406Z,6.23
2017-10-19T14:44:50.551Z,6.13
2017-10-19T14:47:20.538Z,5.90
2017-10-19T14:49:50.578Z,6.07
2017-10-19T14:52:20.552Z,5.87
2017-10-19T14:54:50.709Z,5.90
2017-10-19T14:57:20.630Z,6.57
2017-10-19T14:59:50.691Z,6.30
2017-10-19T15:02:20.726Z,6.00
2017-10-19T15:04:50.728Z,6.07
2017-10-19T15:07:20.681Z,6.00
2017-10-19T15:09:50.809Z,6.13
2017-10-19T15:12:21.057Z,6.20
2017-10-19T15:14:50.844Z,6.93
2017-10-19T15:17:20.863Z,6.03
2017-10-19T15:19:50.880Z,6.67
2017-10-19T15:22:20.897Z,6.30
2017-10-19T15:24:50.846Z,5.90
2017-10-19T15:27:20.933Z,6.00
2017-10-19T15:29:51.061Z,6.77
2017-10-19T15:32:21.034Z,6.10
2017-10-19T15:34:51.108Z,7.50
2017-10-19T15:37:21.133Z,6.30
2017-10-19T15:39:51.142Z,6.77
2017-10-19T15:42:21.209Z,7.80
2017-10-19T15:44:51.186Z,6.80
2017-10-19T15:47:21.185Z,6.33
2017-10-19T15:49:51.349Z,6.20
2017-10-19T15:52:21.294Z,5.93
2017-10-19T15:57:51.609Z,6.60
2017-10-19T16:00:21.503Z,7.37
2017-10-19T16:02:51.462Z,8.53
2017-10-19T16:05:21.829Z,10.30
2017-10-19T16:07:51.683Z,6.97
2017-10-19T16:10:21.552Z,7.47
2017-10-19T16:12:51.632Z,6.83
2017-10-19T16:15:21.581Z,7.17
2017-10-19T16:17:51.570Z,6.97
2017-10-19T16:20:21.728Z,7.20
2017-10-19T16:22:51.914Z,6.40
2017-10-19T16:25:22.406Z,7.20
2017-10-19T16:27:51.940Z,7.80
2017-10-19T16:30:21.791Z,7.67
2017-10-19T16:32:51.730Z,7.80
2017-10-19T16:35:21.749Z,7.40
2017-10-19T16:37:51.704Z,8.03
2017-10-19T16:40:21.769Z,8.03
2017-10-19T16:42:51.866Z,8.53
2017-10-19T16:45:21.931Z,7.33
2017-10-19T16:47:51.935Z,30.37
2017-10-19T16:50:21.998Z,24.37
2017-10-19T16:52:51.973Z,9.63
2017-10-19T16:55:21.963Z,9.30
2017-10-19T16:57:51.972Z,9.07
2017-10-19T17:00:22.107Z,8.97
2017-10-19T17:02:52.148Z,9.20
2017-10-19T17:05:22.118Z,10.30
2017-10-19T17:07:52.165Z,9.13
2017-10-19T17:10:22.151Z,8.43
2017-10-19T17:12:52.200Z,8.33
2017-10-19T17:15:22.247Z,8.10
2017-10-19T17:17:52.231Z,8.60
2017-10-19T17:20:22.207Z,9.27
2017-10-19T17:22:52.317Z,14.10
2017-10-19T17:25:22.338Z,28.77
2017-10-19T17:27:52.426Z,14.93
2017-10-19T17:30:22.566Z,13.93
2017-10-19T17:32:52.624Z,12.97
2017-10-19T17:35:22.706Z,8.93
2017-10-19T17:37:52.690Z,9.63
2017-10-19T17:40:22.692Z,11.07
2017-10-19T17:42:53.015Z,10.70
2017-10-19T17:45:23.802Z,8.57
2017-10-19T17:47:53.554Z,9.07
2017-10-19T17:50:23.219Z,9.53
2017-10-19T17:52:53.752Z,8.43
2017-10-19T17:55:23.678Z,8.73
2017-10-19T17:57:53.388Z,9.30
2017-10-19T18:00:23.606Z,9.43
2017-10-19T18:02:54.584Z,11.10
2017-10-19T18:05:25.289Z,11.17
2017-10-19T18:07:56.165Z,10.00
2017-10-19T18:10:28.084Z,10.43
2017-10-19T18:13:00.249Z,10.80
2017-10-19T18:15:31.846Z,10.93
2017-10-19T18:18:03.352Z,11.50
2017-10-19T18:20:34.935Z,10.43
2017-10-19T18:23:06.418Z,10.40
2017-10-19T18:25:38.268Z,13.53
2017-10-19T18:28:10.155Z,15.07
2017-10-19T18:30:41.308Z,13.90
2017-10-19T18:33:12.798Z,10.53
2017-10-19T18:35:44.342Z,12.07
2017-10-19T18:38:15.764Z,11.40
2017-10-19T18:40:47.128Z,12.23
2017-10-19T18:43:18.845Z,10.93
2017-10-19T18:45:50.154Z,11.50
2017-10-19T18:48:20.863Z,10.87
2017-10-19T18:50:52.741Z,10.50
2017-10-19T18:53:24.232Z,10.13
2017-10-19T18:55:55.766Z,10.70
2017-10-19T18:58:27.107Z,10.20
2017-10-19T19:00:58.574Z,12.50
2017-10-19T19:03:31.391Z,11.97
2017-10-19T19:06:02.613Z,12.90
2017-10-19T19:08:34.662Z,12.90
2017-10-19T19:11:06.128Z,11.30
2017-10-19T19:13:37.943Z,11.13
2017-10-19T19:16:09.425Z,10.57
2017-10-19T19:18:40.849Z,11.77
2017-10-19T19:21:12.315Z,10.97
2017-10-19T19:23:43.742Z,11.43
2017-10-19T19:26:15.615Z,11.10
2017-10-19T19:28:47.215Z,10.30
2017-10-19T19:31:18.721Z,10.57
2017-10-19T19:33:50.712Z,11.90
2017-10-19T19:36:22.775Z,10.67
2017-10-19T19:38:54.308Z,11.00
2017-10-19T19:41:25.766Z,11.17
2017-10-19T19:43:57.068Z,10.80
2017-10-19T19:46:29.274Z,10.47
2017-10-19T19:49:01.125Z,10.40
2017-10-19T19:51:32.417Z,10.20
2017-10-19T19:54:04.174Z,10.20
2017-10-19T19:56:36.135Z,10.23
2017-10-19T19:59:07.373Z,12.73
2017-10-19T20:01:39.126Z,12.20
2017-10-19T20:04:10.858Z,10.70
2017-10-19T20:06:42.397Z,12.23
2017-10-19T20:09:14.172Z,10.97
2017-10-19T20:11:46.137Z,9.47
2017-10-19T20:14:17.426Z,10.00
2017-10-19T20:16:48.161Z,10.47
2017-10-19T20:19:20.175Z,9.77
2017-10-19T20:21:51.411Z,9.50
2017-10-19T20:24:22.649Z,10.53
2017-10-19T20:26:54.420Z,9.87
2017-10-19T20:29:26.489Z,9.47
2017-10-19T20:31:57.313Z,9.03
2017-10-19T20:34:28.167Z,9.60
2017-10-19T20:36:58.082Z,12.47
2017-10-19T20:39:28.209Z,10.10
2017-10-19T20:41:58.060Z,10.13
2017-10-19T20:44:29.326Z,10.87
2017-10-19T20:46:59.087Z,10.90
2017-10-19T20:49:29.238Z,10.13
2017-10-19T20:51:59.157Z,10.47
2017-10-19T20:54:29.149Z,10.03
2017-10-19T20:56:59.349Z,10.20
2017-10-19T20:59:29.255Z,10.00
2017-10-19T21:01:59.319Z,10.60
2017-10-19T21:04:29.331Z,10.77
2017-10-19T21:06:59.341Z,11.33
2017-10-19T21:09:29.361Z,10.63
2017-10-19T21:11:59.389Z,10.50
2017-10-19T21:14:29.429Z,10.50
2017-10-19T21:16:59.528Z,10.37
2017-10-19T21:19:29.440Z,10.57
2017-10-19T21:21:59.456Z,11.13
2017-10-19T21:24:29.485Z,12.70
2017-10-19T21:26:59.493Z,11.63
2017-10-19T21:29:29.525Z,11.07
2017-10-19T21:31:59.529Z,10.67
2017-10-19T21:34:29.534Z,9.77
2017-10-19T21:36:59.658Z,9.80
2017-10-19T21:39:29.673Z,10.30
2017-10-19T21:41:59.652Z,10.03
2017-10-19T21:44:29.734Z,10.00
2017-10-19T21:46:59.725Z,9.50
2017-10-19T21:49:29.844Z,10.47
2017-10-19T21:51:59.852Z,9.43
2017-10-19T21:54:29.866Z,10.03
2017-10-19T21:56:59.901Z,10.07
2017-10-19T21:59:29.945Z,10.57
2017-10-19T22:01:59.966Z,10.80
2017-10-19T22:04:30.076Z,10.90
2017-10-19T22:06:59.985Z,10.40
2017-10-19T22:09:30.105Z,10.90
2017-10-19T22:12:00.144Z,10.30
2017-10-19T22:14:30.127Z,9.77
2017-10-19T22:17:00.264Z,9.67
2017-10-19T22:19:30.268Z,10.93
2017-10-19T22:22:00.283Z,9.60
2017-10-19T22:24:30.304Z,10.70
2017-10-19T22:27:00.326Z,10.07
2017-10-19T22:29:30.335Z,10.23
2017-10-19T22:32:00.459Z,11.47
2017-10-19T22:34:30.473Z,11.40
2017-10-19T22:37:00.416Z,11.67
2017-10-19T22:39:30.375Z,14.07
2017-10-19T22:42:00.534Z,12.07
2017-10-19T22:44:30.470Z,12.87
2017-10-19T22:47:00.564Z,13.47
2017-10-19T22:49:30.604Z,15.43
2017-10-19T22:52:00.713Z,13.70
2017-10-19T22:54:30.815Z,11.47
2017-10-19T22:57:00.849Z,13.33
2017-10-19T22:59:31.006Z,13.87
2017-10-19T23:02:00.854Z,13.10
2017-10-19T23:04:30.857Z,12.13
2017-10-19T23:07:00.918Z,12.23
2017-10-19T23:09:30.924Z,11.07
2017-10-19T23:12:01.019Z,13.03
2017-10-19T23:14:31.660Z,12.67
2017-10-19T23:17:01.534Z,11.50
2017-10-19T23:19:31.661Z,11.67
2017-10-19T23:22:01.528Z,12.07
2017-10-19T23:24:31.557Z,11.50
2017-10-19T23:27:01.604Z,15.20
2017-10-19T23:29:31.742Z,13.47
2017-10-19T23:32:01.875Z,14.43
2017-10-19T23:34:31.807Z,14.40
2017-10-19T23:37:01.782Z,13.77
2017-10-19T23:39:31.919Z,15.00
2017-10-19T23:42:02.411Z,14.53
2017-10-19T23:44:32.320Z,18.67
2017-10-19T23:47:02.346Z,14.40
2017-10-19T23:49:32.366Z,14.10
2017-10-19T23:52:02.522Z,14.57
2017-10-19T23:54:32.476Z,17.40
2017-10-19T23:57:02.536Z,17.40
2017-10-19T23:59:32.513Z,15.47
